Terminal Aerodrome Forecast
Issued by NWS

Home | Current Version | Previous Version | Graphics & Text | Print | Product List | Glossary On
Versions: 1 2 3 4 5 6 7 8 9 10 11 12 13 14 15 16 17 18 19 20 21 22 23 24 25 26 27 28 29 30 31 32 33 34
797
FTUS43 KLOT 210523
TAFMDW
TAF
KMDW 210523Z 2106/2212 04007KT P6SM BKN008 OVC010
     FM210800 05007KT P6SM -SHRA FEW005 OVC007
     FM211000 07009KT 5SM -SHRA BR FEW005 OVC007
     FM211600 10013KT 6SM -SHRA BR BKN008 OVC015
     FM212100 07012KT 6SM BR VCSH SCT010 OVC015
     FM220200 03010KT P6SM BKN008=

USA.gov is the U.S. government's official web portal to all federal, state and local government web resources and services.